Time,TemperatureF,DewpointF,PressureIn,WindDirection,WindDirectionDegrees,WindSpeedMPH,WindSpeedGustMPH,Humidity,HourlyPrecipIn,Conditions,Clouds,dailyrainin,SoftwareType,DateUTC
2013-03-20 00:03:00,35.2,30.3,30.28,ESE,104,0.0,2.0,82,0.00,FEW,FEW,0.00,WeatherDisplay:10.37,2013-03-20 05:03:00,
2013-03-20 00:09:00,35.1,30.8,30.28,SE,140,0.0,2.0,84,0.00,FEW,FEW,0.00,WeatherDisplay:10.37,2013-03-20 05:09:00,
2013-03-20 00:15:00,34.3,30.3,30.28,ESE,114,0.0,0.0,85,0.00,FEW,FEW,0.00,WeatherDisplay:10.37,2013-03-20 05:15:00,
2013-03-20 00:21:00,34.5,30.7,30.28,ESE,113,0.0,0.0,86,0.00,FEW,FEW,0.00,WeatherDisplay:10.37,2013-03-20 05:21:00,
2013-03-20 00:27:00,34.5,30.7,30.27,SE,130,0.0,0.0,86,0.00,FEW,FEW,0.00,WeatherDisplay:10.37,2013-03-20 05:27:00,
2013-03-20 00:33:00,34.3,30.6,30.27,SE,142,0.0,2.0,86,0.00,FEW,FEW,0.00,WeatherDisplay:10.37,2013-03-20 05:33:00,
2013-03-20 00:39:00,34.0,30.3,30.28,SE,135,0.0,0.0,86,0.00,FEW,FEW,0.00,WeatherDisplay:10.37,2013-03-20 05:39:00,
2013-03-20 00:45:00,34.0,30.5,30.28,SSE,160,0.0,0.0,87,0.00,FEW,FEW,0.00,WeatherDisplay:10.37,2013-03-20 05:45:00,
2013-03-20 00:51:00,34.0,30.5,30.28,South,179,0.0,0.0,87,0.00,FEW,FEW,0.00,WeatherDisplay:10.37,2013-03-20 05:51:00,
2013-03-20 00:57:00,34.0,30.5,30.28,South,183,0.0,0.0,87,0.00,FEW,FEW,0.00,WeatherDisplay:10.37,2013-03-20 05:57:00,
2013-03-20 01:03:00,34.0,30.5,30.28,South,180,0.0,0.0,87,0.00,SCT,SCT,0.00,WeatherDisplay:10.37,2013-03-20 06:03:00,
2013-03-20 01:09:00,34.0,30.5,30.28,South,180,0.0,0.0,87,0.00,SCT,SCT,0.00,WeatherDisplay:10.37,2013-03-20 06:09:00,
2013-03-20 01:15:00,34.0,30.5,30.28,South,180,0.0,0.0,87,0.00,SCT,SCT,0.00,WeatherDisplay:10.37,2013-03-20 06:15:00,
2013-03-20 01:21:00,34.0,30.5,30.28,South,180,0.0,0.0,87,0.00,SCT,SCT,0.00,WeatherDisplay:10.37,2013-03-20 06:21:00,
2013-03-20 01:27:00,34.0,30.5,30.28,South,180,0.0,0.0,87,0.00,SCT,SCT,0.00,WeatherDisplay:10.37,2013-03-20 06:27:00,
2013-03-20 01:33:00,34.0,30.5,30.28,South,180,0.0,0.0,87,0.00,SCT,SCT,0.00,WeatherDisplay:10.37,2013-03-20 06:33:00,
2013-03-20 01:39:00,34.0,30.5,30.28,South,180,0.0,0.0,87,0.00,SCT,SCT,0.00,WeatherDisplay:10.37,2013-03-20 06:39:00,
2013-03-20 01:45:00,34.0,30.5,30.28,South,180,0.0,0.0,87,0.00,SCT,SCT,0.00,WeatherDisplay:10.37,2013-03-20 06:45:00,
2013-03-20 01:51:00,34.0,30.5,30.28,South,180,0.0,0.0,87,0.00,SCT,SCT,0.00,WeatherDisplay:10.37,2013-03-20 06:51:00,
2013-03-20 01:57:00,34.0,30.5,30.28,South,180,0.0,0.0,87,0.00,SCT,SCT,0.00,WeatherDisplay:10.37,2013-03-20 06:57:00,
2013-03-20 02:03:00,34.0,30.5,30.28,South,180,0.0,0.0,87,0.00,SCT,SCT,0.00,WeatherDisplay:10.37,2013-03-20 07:03:00,
2013-03-20 02:09:00,34.0,30.5,30.28,South,180,0.0,0.0,87,0.00,SCT,SCT,0.00,WeatherDisplay:10.37,2013-03-20 07:09:00,
2013-03-20 02:15:00,34.0,30.5,30.28,South,180,0.0,0.0,87,0.00,SCT,SCT,0.00,WeatherDisplay:10.37,2013-03-20 07:15:00,
2013-03-20 02:21:00,34.0,30.5,30.28,South,180,0.0,0.0,87,0.00,SCT,SCT,0.00,WeatherDisplay:10.37,2013-03-20 07:21:00,
2013-03-20 02:27:00,34.0,30.5,30.28,South,180,0.0,0.0,87,0.00,SCT,SCT,0.00,WeatherDisplay:10.37,2013-03-20 07:27:00,
2013-03-20 02:33:00,34.0,30.5,30.28,South,180,0.0,0.0,87,0.00,SCT,SCT,0.00,WeatherDisplay:10.37,2013-03-20 07:33:00,
2013-03-20 02:39:00,34.0,30.5,30.28,South,180,0.0,0.0,87,0.00,SCT,SCT,0.00,WeatherDisplay:10.37,2013-03-20 07:39:00,
2013-03-20 02:45:00,34.0,30.5,30.28,South,180,0.0,0.0,87,0.00,SCT,SCT,0.00,WeatherDisplay:10.37,2013-03-20 07:45:00,
2013-03-20 02:51:00,34.0,30.5,30.28,South,180,0.0,0.0,87,0.00,SCT,SCT,0.00,WeatherDisplay:10.37,2013-03-20 07:51:00,
2013-03-20 02:57:00,34.0,30.5,30.28,South,180,0.0,0.0,87,0.00,SCT,SCT,0.00,WeatherDisplay:10.37,2013-03-20 07:57:00,
2013-03-20 03:03:00,34.0,30.5,30.28,South,180,0.0,0.0,87,0.00,FEW,FEW,0.00,WeatherDisplay:10.37,2013-03-20 08:03:00,
2013-03-20 03:09:00,34.0,30.5,30.28,South,180,0.0,0.0,87,0.00,FEW,FEW,0.00,WeatherDisplay:10.37,2013-03-20 08:09:00,
2013-03-20 03:15:00,34.0,30.5,30.28,South,180,0.0,0.0,87,0.00,FEW,FEW,0.00,WeatherDisplay:10.37,2013-03-20 08:15:00,
2013-03-20 03:21:00,34.0,30.5,30.28,South,180,0.0,0.0,87,0.00,FEW,FEW,0.00,WeatherDisplay:10.37,2013-03-20 08:21:00,
2013-03-20 03:27:00,34.0,30.5,30.28,South,180,0.0,0.0,87,0.00,FEW,FEW,0.00,WeatherDisplay:10.37,2013-03-20 08:27:00,
2013-03-20 03:33:00,34.0,30.5,30.28,South,180,0.0,0.0,87,0.00,FEW,FEW,0.00,WeatherDisplay:10.37,2013-03-20 08:33:00,
2013-03-20 03:39:00,34.0,30.5,30.28,South,180,0.0,0.0,87,0.00,FEW,FEW,0.00,WeatherDisplay:10.37,2013-03-20 08:39:00,
2013-03-20 03:45:00,34.0,30.5,30.28,South,180,0.0,0.0,87,0.00,FEW,FEW,0.00,WeatherDisplay:10.37,2013-03-20 08:45:00,
2013-03-20 03:51:00,34.0,30.5,30.28,South,180,0.0,0.0,87,0.00,FEW,FEW,0.00,WeatherDisplay:10.37,2013-03-20 08:51:00,
2013-03-20 03:57:00,34.0,30.5,30.28,South,180,0.0,0.0,87,0.00,FEW,FEW,0.00,WeatherDisplay:10.37,2013-03-20 08:57:00,
2013-03-20 04:03:00,34.0,30.5,30.28,South,180,0.0,0.0,87,0.00,FEW,FEW,0.00,WeatherDisplay:10.37,2013-03-20 09:03:00,
2013-03-20 04:09:00,34.0,30.5,30.28,South,180,0.0,0.0,87,0.00,FEW,FEW,0.00,WeatherDisplay:10.37,2013-03-20 09:09:00,
2013-03-20 04:15:00,34.0,30.5,30.28,South,180,0.0,0.0,87,0.00,FEW,FEW,0.00,WeatherDisplay:10.37,2013-03-20 09:15:00,
2013-03-20 04:21:00,34.0,30.5,30.28,South,180,0.0,0.0,87,0.00,FEW,FEW,0.00,WeatherDisplay:10.37,2013-03-20 09:21:00,
2013-03-20 04:27:00,34.0,30.5,30.28,South,180,0.0,0.0,87,0.00,FEW,FEW,0.00,WeatherDisplay:10.37,2013-03-20 09:27:00,
2013-03-20 04:33:00,34.0,30.5,30.28,South,180,0.0,0.0,87,0.00,FEW,FEW,0.00,WeatherDisplay:10.37,2013-03-20 09:33:00,
2013-03-20 04:39:00,34.0,30.5,30.28,South,180,0.0,0.0,87,0.00,FEW,FEW,0.00,WeatherDisplay:10.37,2013-03-20 09:39:00,
2013-03-20 04:45:00,34.0,30.5,30.28,South,180,0.0,0.0,87,0.00,FEW,FEW,0.00,WeatherDisplay:10.37,2013-03-20 09:45:00,
2013-03-20 04:51:00,34.0,30.5,30.28,South,180,0.0,0.0,87,0.00,FEW,FEW,0.00,WeatherDisplay:10.37,2013-03-20 09:51:00,
2013-03-20 04:57:00,34.0,30.5,30.28,South,180,0.0,0.0,87,0.00,FEW,FEW,0.00,WeatherDisplay:10.37,2013-03-20 09:57:00,
2013-03-20 05:03:00,34.0,30.5,30.28,South,180,0.0,0.0,87,0.00,FEW,FEW,0.00,WeatherDisplay:10.37,2013-03-20 10:03:00,
2013-03-20 05:09:00,34.0,30.5,30.28,South,180,0.0,0.0,87,0.00,FEW,FEW,0.00,WeatherDisplay:10.37,2013-03-20 10:09:00,
2013-03-20 05:15:00,34.0,30.5,30.28,South,180,0.0,0.0,87,0.00,FEW,FEW,0.00,WeatherDisplay:10.37,2013-03-20 10:15:00,
2013-03-20 05:21:00,34.0,30.5,30.28,South,180,0.0,0.0,87,0.00,FEW,FEW,0.00,WeatherDisplay:10.37,2013-03-20 10:21:00,
2013-03-20 05:27:00,34.0,30.5,30.28,South,180,0.0,0.0,87,0.00,FEW,FEW,0.00,WeatherDisplay:10.37,2013-03-20 10:27:00,
2013-03-20 05:33:00,30.7,29.2,30.33,WSW,242,5.0,6.0,94,0.00,FEW,FEW,0.00,WeatherDisplay:10.37,2013-03-20 10:33:00,
2013-03-20 05:39:00,30.7,29.2,30.34,NNW,337,2.0,5.0,94,0.00,FEW,FEW,0.00,WeatherDisplay:10.37,2013-03-20 10:39:00,
2013-03-20 05:45:00,30.6,28.8,30.34,NNW,333,3.0,6.0,93,0.00,FEW,FEW,0.00,WeatherDisplay:10.37,2013-03-20 10:45:00,
2013-03-20 05:51:00,30.6,28.8,30.34,NW,324,7.0,9.0,93,0.00,FEW,FEW,0.00,WeatherDisplay:10.37,2013-03-20 10:51:00,
2013-03-20 05:57:00,30.7,28.9,30.34,NW,319,6.0,7.0,93,0.00,FEW,FEW,0.00,WeatherDisplay:10.37,2013-03-20 10:57:00,
2013-03-20 06:03:00,30.6,28.8,30.34,NNW,337,6.0,7.0,93,0.00,SCT,SCT,0.00,WeatherDisplay:10.37,2013-03-20 11:03:00,
2013-03-20 06:09:00,30.7,28.9,30.34,NNW,335,6.0,8.0,93,0.00,SCT,SCT,0.00,WeatherDisplay:10.37,2013-03-20 11:09:00,
2013-03-20 06:15:00,31.0,29.2,30.35,NNW,330,5.0,8.0,93,0.00,SCT,SCT,0.00,WeatherDisplay:10.37,2013-03-20 11:15:00,
2013-03-20 06:21:00,31.5,29.4,30.35,NNW,347,5.0,9.0,92,0.00,SCT,SCT,0.00,WeatherDisplay:10.37,2013-03-20 11:21:00,
2013-03-20 06:27:00,31.5,29.4,30.36,NNW,339,5.0,12.0,92,0.00,SCT,SCT,0.00,WeatherDisplay:10.37,2013-03-20 11:27:00,
2013-03-20 06:33:00,31.6,29.3,30.36,NE,37,6.0,8.0,91,0.00,SCT,SCT,0.00,WeatherDisplay:10.37,2013-03-20 11:33:00,
2013-03-20 06:39:00,31.8,29.2,30.36,East,79,7.0,10.0,90,0.00,SCT,SCT,0.00,WeatherDisplay:10.37,2013-03-20 11:39:00,
2013-03-20 06:45:00,32.4,28.7,30.36,NE,49,8.0,13.0,86,0.00,SCT,SCT,0.00,WeatherDisplay:10.37,2013-03-20 11:45:00,
2013-03-20 06:51:00,32.5,28.2,30.36,NE,34,5.0,9.0,84,0.00,SCT,SCT,0.00,WeatherDisplay:10.37,2013-03-20 11:51:00,
2013-03-20 06:57:00,32.5,27.0,30.36,NE,49,7.0,9.0,80,0.00,SCT,SCT,0.00,WeatherDisplay:10.37,2013-03-20 11:57:00,
2013-03-20 07:03:00,32.2,26.1,30.37,ENE,71,7.0,12.0,78,0.00,SCT,SCT,0.00,WeatherDisplay:10.37,2013-03-20 12:03:00,
2013-03-20 07:09:00,32.2,24.2,30.37,ENE,62,6.0,10.0,72,0.00,SCT,SCT,0.00,WeatherDisplay:10.37,2013-03-20 12:09:00,
2013-03-20 07:15:00,31.8,23.2,30.38,ENE,69,6.0,8.0,70,0.00,SCT,SCT,0.00,WeatherDisplay:10.37,2013-03-20 12:15:00,
2013-03-20 07:21:00,31.7,22.3,30.38,NNE,25,5.0,8.0,68,0.00,SCT,SCT,0.00,WeatherDisplay:10.37,2013-03-20 12:21:00,
2013-03-20 07:27:00,31.6,22.2,30.38,NNE,26,6.0,8.0,68,0.00,SCT,SCT,0.00,WeatherDisplay:10.37,2013-03-20 12:27:00,
2013-03-20 07:33:00,31.5,22.1,30.38,NE,38,6.0,9.0,68,0.00,SCT,SCT,0.00,WeatherDisplay:10.37,2013-03-20 12:33:00,
2013-03-20 07:39:00,31.5,21.8,30.38,NNE,23,7.0,13.0,67,0.00,SCT,SCT,0.00,WeatherDisplay:10.37,2013-03-20 12:39:00,
2013-03-20 07:45:00,31.3,21.6,30.38,NNE,32,5.0,8.0,67,0.00,SCT,SCT,0.00,WeatherDisplay:10.37,2013-03-20 12:45:00,
2013-03-20 07:51:00,31.3,20.5,30.38,NNE,17,9.0,16.0,64,0.00,SCT,SCT,0.00,WeatherDisplay:10.37,2013-03-20 12:51:00,
2013-03-20 07:57:00,31.3,20.2,30.38,North,358,6.0,12.0,63,0.00,SCT,SCT,0.00,WeatherDisplay:10.37,2013-03-20 12:57:00,
2013-03-20 08:03:00,31.5,18.8,30.39,North,6,3.0,5.0,59,0.00,SCT,SCT,0.00,WeatherDisplay:10.37,2013-03-20 13:03:00,
2013-03-20 08:09:00,31.3,19.0,30.39,NE,54,9.0,13.0,60,0.00,SCT,SCT,0.00,WeatherDisplay:10.37,2013-03-20 13:09:00,
2013-03-20 08:15:00,31.1,19.6,30.40,NE,53,6.0,10.0,62,0.00,SCT,SCT,0.00,WeatherDisplay:10.37,2013-03-20 13:15:00,
2013-03-20 08:21:00,31.1,19.6,30.40,NNE,20,5.0,12.0,62,0.00,SCT,SCT,0.00,WeatherDisplay:10.37,2013-03-20 13:21:00,
2013-03-20 08:27:00,31.3,20.2,30.40,NE,39,5.0,7.0,63,0.00,SCT,SCT,0.00,WeatherDisplay:10.37,2013-03-20 13:27:00,
2013-03-20 08:33:00,31.3,20.2,30.40,NNE,30,3.0,7.0,63,0.00,SCT,SCT,0.00,WeatherDisplay:10.37,2013-03-20 13:33:00,
2013-03-20 08:39:00,31.6,19.7,30.40,ENE,59,7.0,9.0,61,0.00,SCT,SCT,0.00,WeatherDisplay:10.37,2013-03-20 13:39:00,
2013-03-20 08:45:00,31.8,19.5,30.40,NNE,26,7.0,9.0,60,0.00,SCT,SCT,0.00,WeatherDisplay:10.37,2013-03-20 13:45:00,
2013-03-20 08:51:00,31.8,19.5,30.40,NNE,24,5.0,8.0,60,0.00,SCT,SCT,0.00,WeatherDisplay:10.37,2013-03-20 13:51:00,
2013-03-20 08:57:00,32.0,19.7,30.40,NNE,33,6.0,8.0,60,0.00,SCT,SCT,0.00,WeatherDisplay:10.37,2013-03-20 13:57:00,
2013-03-20 09:03:00,32.4,19.7,30.40,NE,47,6.0,9.0,59,0.00,SCT,SCT,0.00,WeatherDisplay:10.37,2013-03-20 14:03:00,
2013-03-20 09:09:00,32.7,19.6,30.40,ENE,67,6.0,9.0,58,0.00,SCT,SCT,0.00,WeatherDisplay:10.37,2013-03-20 14:09:00,
2013-03-20 09:15:00,33.4,19.7,30.41,NE,40,7.0,10.0,57,0.00,SCT,SCT,0.00,WeatherDisplay:10.37,2013-03-20 14:15:00,
2013-03-20 09:21:00,34.1,20.0,30.41,NE,37,3.0,8.0,56,0.00,SCT,SCT,0.00,WeatherDisplay:10.37,2013-03-20 14:21:00,
2013-03-20 09:27:00,34.2,19.3,30.41,NNE,28,6.0,8.0,54,0.00,SCT,SCT,0.00,WeatherDisplay:10.37,2013-03-20 14:27:00,
2013-03-20 09:33:00,33.9,19.0,30.41,NNE,32,7.0,10.0,54,0.00,SCT,SCT,0.00,WeatherDisplay:10.37,2013-03-20 14:33:00,
2013-03-20 09:39:00,34.4,19.9,30.41,ENE,61,5.0,8.0,55,0.00,SCT,SCT,0.00,WeatherDisplay:10.37,2013-03-20 14:39:00,
2013-03-20 09:45:00,34.5,19.1,30.41,East,91,8.0,14.0,53,0.00,SCT,SCT,0.00,WeatherDisplay:10.37,2013-03-20 14:45:00,
2013-03-20 09:51:00,34.7,18.9,30.41,ENE,73,6.0,12.0,52,0.00,SCT,SCT,0.00,WeatherDisplay:10.37,2013-03-20 14:51:00,
2013-03-20 09:57:00,35.2,18.9,30.41,East,81,5.0,7.0,51,0.00,SCT,SCT,0.00,WeatherDisplay:10.37,2013-03-20 14:57:00,
2013-03-20 10:03:00,35.6,19.2,30.41,ENE,75,7.0,10.0,51,0.00,FEW,FEW,0.00,WeatherDisplay:10.37,2013-03-20 15:03:00,
2013-03-20 10:09:00,35.1,18.3,30.41,ENE,78,7.0,10.0,50,0.00,FEW,FEW,0.00,WeatherDisplay:10.37,2013-03-20 15:09:00,
2013-03-20 10:15:00,35.4,18.6,30.41,ENE,72,7.0,9.0,50,0.00,FEW,FEW,0.00,WeatherDisplay:10.37,2013-03-20 15:15:00,
2013-03-20 10:21:00,35.6,17.3,30.41,East,93,7.0,12.0,47,0.00,FEW,FEW,0.00,WeatherDisplay:10.37,2013-03-20 15:21:00,
2013-03-20 10:27:00,36.0,15.7,30.41,East,80,7.0,12.0,43,0.00,FEW,FEW,0.00,WeatherDisplay:10.37,2013-03-20 15:27:00,
2013-03-20 10:33:00,36.7,15.7,30.41,NE,52,7.0,9.0,42,0.00,FEW,FEW,0.00,WeatherDisplay:10.37,2013-03-20 15:33:00,
2013-03-20 10:39:00,36.6,16.2,30.40,East,88,9.0,12.0,43,0.00,FEW,FEW,0.00,WeatherDisplay:10.37,2013-03-20 15:39:00,
2013-03-20 10:45:00,37.7,16.7,30.40,East,86,7.0,10.0,42,0.00,FEW,FEW,0.00,WeatherDisplay:10.37,2013-03-20 15:45:00,
2013-03-20 10:51:00,37.6,15.4,30.40,NE,46,7.0,12.0,40,0.00,FEW,FEW,0.00,WeatherDisplay:10.37,2013-03-20 15:51:00,
2013-03-20 10:57:00,37.6,14.9,30.40,North,2,9.0,16.0,39,0.00,FEW,FEW,0.00,WeatherDisplay:10.37,2013-03-20 15:57:00,
2013-03-20 11:03:00,37.9,15.1,30.39,NE,37,7.0,10.0,39,0.00,CLR,CLR,0.00,WeatherDisplay:10.37,2013-03-20 16:03:00,
2013-03-20 11:09:00,37.9,15.1,30.39,East,85,9.0,14.0,39,0.00,CLR,CLR,0.00,WeatherDisplay:10.37,2013-03-20 16:09:00,
2013-03-20 11:15:00,39.0,16.7,30.39,ENE,77,6.0,9.0,40,0.00,CLR,CLR,0.00,WeatherDisplay:10.37,2013-03-20 16:15:00,
2013-03-20 11:21:00,38.9,16.6,30.39,East,83,8.0,13.0,40,0.00,CLR,CLR,0.00,WeatherDisplay:10.37,2013-03-20 16:21:00,
2013-03-20 11:27:00,39.3,16.3,30.39,East,83,9.0,13.0,39,0.00,CLR,CLR,0.00,WeatherDisplay:10.37,2013-03-20 16:27:00,
2013-03-20 11:33:00,39.4,16.5,30.39,East,94,8.0,15.0,39,0.00,CLR,CLR,0.00,WeatherDisplay:10.37,2013-03-20 16:33:00,
2013-03-20 11:39:00,39.2,16.3,30.39,East,96,10.0,14.0,39,0.00,CLR,CLR,0.00,WeatherDisplay:10.37,2013-03-20 16:39:00,
2013-03-20 11:45:00,39.6,16.1,30.39,ESE,107,7.0,7.0,38,0.00,CLR,CLR,0.00,WeatherDisplay:10.37,2013-03-20 16:45:00,
2013-03-20 11:51:00,40.1,16.5,30.39,East,79,8.0,12.0,38,0.00,CLR,CLR,0.00,WeatherDisplay:10.37,2013-03-20 16:51:00,
2013-03-20 11:57:00,40.2,17.2,30.39,East,99,9.0,15.0,39,0.00,CLR,CLR,0.00,WeatherDisplay:10.37,2013-03-20 16:57:00,
2013-03-20 12:03:00,41.5,18.4,30.39,East,97,5.0,7.0,39,0.00,CLR,CLR,0.00,WeatherDisplay:10.37,2013-03-20 17:03:00,
2013-03-20 12:09:00,41.7,17.9,30.39,North,356,6.0,9.0,38,0.00,CLR,CLR,0.00,WeatherDisplay:10.37,2013-03-20 17:09:00,
2013-03-20 12:15:00,42.7,18.8,30.39,NE,54,5.0,6.0,38,0.00,CLR,CLR,0.00,WeatherDisplay:10.37,2013-03-20 17:15:00,
2013-03-20 12:21:00,41.9,16.2,30.39,East,81,8.0,14.0,35,0.00,CLR,CLR,0.00,WeatherDisplay:10.37,2013-03-20 17:21:00,
2013-03-20 12:27:00,41.6,15.9,30.39,East,79,8.0,10.0,35,0.00,CLR,CLR,0.00,WeatherDisplay:10.37,2013-03-20 17:27:00,
2013-03-20 12:33:00,42.9,16.4,30.39,East,97,7.0,9.0,34,0.00,CLR,CLR,0.00,WeatherDisplay:10.37,2013-03-20 17:33:00,
2013-03-20 12:39:00,43.8,16.5,30.38,NE,48,9.0,12.0,33,0.00,CLR,CLR,0.00,WeatherDisplay:10.37,2013-03-20 17:39:00,
2013-03-20 12:45:00,44.1,17.5,30.38,NE,46,7.0,9.0,34,0.00,CLR,CLR,0.00,WeatherDisplay:10.37,2013-03-20 17:45:00,
2013-03-20 12:51:00,43.0,17.2,30.37,ENE,69,8.0,9.0,35,0.00,CLR,CLR,0.00,WeatherDisplay:10.37,2013-03-20 17:51:00,
2013-03-20 12:57:00,43.6,17.0,30.37,NNE,25,6.0,8.0,34,0.00,CLR,CLR,0.00,WeatherDisplay:10.37,2013-03-20 17:57:00,
2013-03-20 13:03:00,44.6,16.5,30.37,East,98,7.0,9.0,32,0.00,FEW,FEW,0.00,WeatherDisplay:10.37,2013-03-20 18:03:00,
2013-03-20 13:09:00,45.1,18.4,30.37,East,89,5.0,7.0,34,0.00,FEW,FEW,0.00,WeatherDisplay:10.37,2013-03-20 18:09:00,
2013-03-20 13:15:00,42.3,16.6,30.36,East,83,7.0,10.0,35,0.00,FEW,FEW,0.00,WeatherDisplay:10.37,2013-03-20 18:15:00,
2013-03-20 13:21:00,45.4,17.9,30.36,ENE,60,6.0,12.0,33,0.00,FEW,FEW,0.00,WeatherDisplay:10.37,2013-03-20 18:21:00,
2013-03-20 13:27:00,44.1,16.1,30.34,NNW,329,5.0,6.0,32,0.00,FEW,FEW,0.00,WeatherDisplay:10.37,2013-03-20 18:27:00,
2013-03-20 13:33:00,44.9,17.5,30.34,ENE,60,6.0,9.0,33,0.00,FEW,FEW,0.00,WeatherDisplay:10.37,2013-03-20 18:33:00,
2013-03-20 13:39:00,45.5,18.0,30.34,North,354,7.0,7.0,33,0.00,FEW,FEW,0.00,WeatherDisplay:10.37,2013-03-20 18:39:00,
2013-03-20 13:45:00,45.2,18.5,30.34,NW,320,3.0,7.0,34,0.00,FEW,FEW,0.00,WeatherDisplay:10.37,2013-03-20 18:45:00,
2013-03-20 13:51:00,46.4,17.4,30.33,North,9,3.0,6.0,31,0.00,FEW,FEW,0.00,WeatherDisplay:10.37,2013-03-20 18:51:00,
2013-03-20 13:57:00,44.7,16.6,30.33,ENE,67,6.0,9.0,32,0.00,FEW,FEW,0.00,WeatherDisplay:10.37,2013-03-20 18:57:00,
2013-03-20 14:03:00,47.1,18.7,30.32,East,79,5.0,10.0,32,0.00,FEW,FEW,0.00,WeatherDisplay:10.37,2013-03-20 19:03:00,
2013-03-20 14:09:00,47.1,18.0,30.32,ENE,75,5.0,9.0,31,0.00,FEW,FEW,0.00,WeatherDisplay:10.37,2013-03-20 19:09:00,
2013-03-20 14:15:00,44.3,16.3,30.31,North,2,3.0,7.0,32,0.00,FEW,FEW,0.00,WeatherDisplay:10.37,2013-03-20 19:15:00,
2013-03-20 14:21:00,48.5,18.4,30.31,NNW,327,5.0,7.0,30,0.00,FEW,FEW,0.00,WeatherDisplay:10.37,2013-03-20 19:21:00,
2013-03-20 14:27:00,46.5,16.7,30.30,NE,41,3.0,7.0,30,0.00,FEW,FEW,0.00,WeatherDisplay:10.37,2013-03-20 19:27:00,
2013-03-20 14:33:00,46.4,16.6,30.30,NE,47,7.0,9.0,30,0.00,FEW,FEW,0.00,WeatherDisplay:10.37,2013-03-20 19:33:00,
2013-03-20 14:39:00,46.5,17.4,30.29,East,83,8.0,12.0,31,0.00,FEW,FEW,0.00,WeatherDisplay:10.37,2013-03-20 19:39:00,
2013-03-20 14:45:00,45.2,17.0,30.29,East,87,7.0,10.0,32,0.00,FEW,FEW,0.00,WeatherDisplay:10.37,2013-03-20 19:45:00,
2013-03-20 14:51:00,47.5,17.6,30.28,East,83,3.0,7.0,30,0.00,FEW,FEW,0.00,WeatherDisplay:10.37,2013-03-20 19:51:00,
2013-03-20 14:57:00,45.4,16.5,30.28,NW,317,6.0,7.0,31,0.00,FEW,FEW,0.00,WeatherDisplay:10.37,2013-03-20 19:57:00,
2013-03-20 15:03:00,46.6,19.0,30.27,WNW,296,3.0,5.0,33,0.00,FEW,FEW,0.00,WeatherDisplay:10.37,2013-03-20 20:03:00,
2013-03-20 15:09:00,47.9,19.4,30.27,NW,319,5.0,7.0,32,0.00,FEW,FEW,0.00,WeatherDisplay:10.37,2013-03-20 20:09:00,
2013-03-20 15:18:00,46.8,18.5,30.25,ENE,61,5.0,8.0,32,0.00,FEW,FEW,0.00,WeatherDisplay:10.37,2013-03-20 20:18:00,
2013-03-20 15:24:00,47.9,18.7,30.25,ESE,115,5.0,7.0,31,0.00,FEW,FEW,0.00,WeatherDisplay:10.37,2013-03-20 20:24:00,
2013-03-20 15:30:00,47.6,18.4,30.24,NNW,340,6.0,8.0,31,0.00,FEW,FEW,0.00,WeatherDisplay:10.37,2013-03-20 20:30:00,
2013-03-20 15:36:00,47.7,19.2,30.24,NW,314,7.0,12.0,32,0.00,FEW,FEW,0.00,WeatherDisplay:10.37,2013-03-20 20:36:00,
2013-03-20 15:42:00,47.8,18.6,30.23,WNW,287,5.0,9.0,31,0.00,FEW,FEW,0.00,WeatherDisplay:10.37,2013-03-20 20:42:00,
2013-03-20 15:48:00,47.9,17.9,30.23,WNW,290,3.0,4.0,30,0.00,FEW,FEW,0.00,WeatherDisplay:10.37,2013-03-20 20:48:00,
2013-03-20 15:54:00,47.8,18.6,30.22,NE,47,5.0,7.0,31,0.00,FEW,FEW,0.00,WeatherDisplay:10.37,2013-03-20 20:54:00,
2013-03-20 16:00:00,48.4,19.1,30.22,East,84,5.0,8.0,31,0.00,FEW,FEW,0.00,WeatherDisplay:10.37,2013-03-20 21:00:00,
2013-03-20 16:06:00,51.4,21.8,30.22,NNE,29,3.0,7.0,31,0.00,SCT,SCT,0.00,WeatherDisplay:10.37,2013-03-20 21:06:00,
2013-03-20 16:12:00,50.0,19.8,30.21,NNW,345,3.0,7.0,30,0.00,SCT,SCT,0.00,WeatherDisplay:10.37,2013-03-20 21:12:00,
2013-03-20 16:18:00,49.3,19.1,30.21,NE,36,3.0,5.0,30,0.00,SCT,SCT,0.00,WeatherDisplay:10.37,2013-03-20 21:18:00,
2013-03-20 16:24:00,50.0,19.7,30.21,NW,321,2.0,5.0,30,0.00,SCT,SCT,0.00,WeatherDisplay:10.37,2013-03-20 21:24:00,
2013-03-20 16:30:00,49.5,20.1,30.20,SSE,152,5.0,6.0,31,0.00,SCT,SCT,0.00,WeatherDisplay:10.37,2013-03-20 21:30:00,
2013-03-20 16:36:00,48.3,18.2,30.20,SE,145,8.0,9.0,30,0.00,SCT,SCT,0.00,WeatherDisplay:10.37,2013-03-20 21:36:00,
2013-03-20 16:42:00,48.6,18.5,30.19,South,183,3.0,7.0,30,0.00,SCT,SCT,0.00,WeatherDisplay:10.37,2013-03-20 21:42:00,
2013-03-20 16:48:00,48.7,18.6,30.19,SW,230,3.0,7.0,30,0.00,SCT,SCT,0.00,WeatherDisplay:10.37,2013-03-20 21:48:00,
2013-03-20 16:54:00,49.8,19.6,30.19,WNW,286,3.0,4.0,30,0.00,SCT,SCT,0.00,WeatherDisplay:10.37,2013-03-20 21:54:00,
2013-03-20 17:00:00,48.7,19.4,30.19,NW,319,1.0,5.0,31,0.00,SCT,SCT,0.00,WeatherDisplay:10.37,2013-03-20 22:00:00,
2013-03-20 17:06:00,49.8,19.5,30.18,East,89,3.0,7.0,30,0.00,SCT,SCT,0.00,WeatherDisplay:10.37,2013-03-20 22:06:00,
2013-03-20 17:12:00,47.7,18.5,30.17,ENE,71,6.0,8.0,31,0.00,SCT,SCT,0.00,WeatherDisplay:10.37,2013-03-20 22:12:00,
2013-03-20 17:18:00,49.1,19.0,30.17,East,100,6.0,8.0,30,0.00,SCT,SCT,0.00,WeatherDisplay:10.37,2013-03-20 22:18:00,
2013-03-20 17:24:00,48.9,19.5,30.16,SE,138,3.0,6.0,31,0.00,SCT,SCT,0.00,WeatherDisplay:10.37,2013-03-20 22:24:00,
2013-03-20 17:30:00,47.7,18.5,30.16,ESE,117,5.0,6.0,31,0.00,SCT,SCT,0.00,WeatherDisplay:10.37,2013-03-20 22:30:00,
2013-03-20 17:36:00,47.8,18.6,30.16,SE,125,0.0,7.0,31,0.00,SCT,SCT,0.00,WeatherDisplay:10.37,2013-03-20 22:36:00,
2013-03-20 17:42:00,48.0,18.0,30.15,SSE,151,3.0,5.0,30,0.00,SCT,SCT,0.00,WeatherDisplay:10.37,2013-03-20 22:42:00,
2013-03-20 17:48:00,48.3,19.0,30.15,SSE,148,1.0,6.0,31,0.00,SCT,SCT,0.00,WeatherDisplay:10.37,2013-03-20 22:48:00,
2013-03-20 17:54:00,48.0,18.8,30.15,SE,135,3.0,6.0,31,0.00,SCT,SCT,0.00,WeatherDisplay:10.37,2013-03-20 22:54:00,
2013-03-20 18:00:00,47.7,18.5,30.15,SE,134,1.0,7.0,31,0.00,SCT,SCT,0.00,WeatherDisplay:10.37,2013-03-20 23:00:00,
2013-03-20 18:06:00,47.7,19.2,30.14,ESE,112,5.0,7.0,32,0.00,SCT,SCT,0.00,WeatherDisplay:10.37,2013-03-20 23:06:00,
2013-03-20 18:12:00,49.1,18.9,30.14,East,93,5.0,8.0,30,0.00,SCT,SCT,0.00,WeatherDisplay:10.37,2013-03-20 23:12:00,
2013-03-20 18:18:00,48.4,19.1,30.14,East,83,7.0,7.0,31,0.00,SCT,SCT,0.00,WeatherDisplay:10.37,2013-03-20 23:18:00,
2013-03-20 18:24:00,48.7,19.4,30.14,ENE,66,2.0,3.0,31,0.00,SCT,SCT,0.00,WeatherDisplay:10.37,2013-03-20 23:24:00,
2013-03-20 18:30:00,48.7,19.4,30.13,SE,129,5.0,6.0,31,0.00,SCT,SCT,0.00,WeatherDisplay:10.37,2013-03-20 23:30:00,
2013-03-20 18:36:00,48.2,19.0,30.14,SSE,160,7.0,10.0,31,0.00,SCT,SCT,0.00,WeatherDisplay:10.37,2013-03-20 23:36:00,
2013-03-20 18:42:00,47.7,19.3,30.14,SSE,159,3.0,6.0,32,0.00,SCT,SCT,0.00,WeatherDisplay:10.37,2013-03-20 23:42:00,
2013-03-20 18:48:00,47.8,19.3,30.14,SSE,147,3.0,5.0,32,0.00,SCT,SCT,0.00,WeatherDisplay:10.37,2013-03-20 23:48:00,
2013-03-20 18:54:00,47.5,19.8,30.13,SE,130,1.0,2.0,33,0.00,SCT,SCT,0.00,WeatherDisplay:10.37,2013-03-20 23:54:00,
2013-03-20 19:00:00,47.5,19.8,30.13,ESE,112,1.0,2.0,33,0.00,SCT,SCT,0.00,WeatherDisplay:10.37,2013-03-21 00:00:00,
2013-03-20 19:06:00,46.9,19.3,30.13,SE,124,0.0,2.0,33,0.00,BKN,BKN,0.00,WeatherDisplay:10.37,2013-03-21 00:06:00,
2013-03-20 19:12:00,46.8,19.9,30.13,SE,146,1.0,4.0,34,0.00,BKN,BKN,0.00,WeatherDisplay:10.37,2013-03-21 00:12:00,
2013-03-20 19:18:00,46.0,19.2,30.13,SE,144,3.0,4.0,34,0.00,BKN,BKN,0.00,WeatherDisplay:10.37,2013-03-21 00:18:00,
2013-03-20 19:24:00,45.7,18.9,30.13,SE,139,5.0,6.0,34,0.00,BKN,BKN,0.00,WeatherDisplay:10.37,2013-03-21 00:24:00,
2013-03-20 19:30:00,45.5,19.4,30.12,SE,124,0.0,0.0,35,0.00,BKN,BKN,0.00,WeatherDisplay:10.37,2013-03-21 00:30:00,
2013-03-20 19:36:00,45.1,19.7,30.12,ESE,112,0.0,0.0,36,0.00,BKN,BKN,0.00,WeatherDisplay:10.37,2013-03-21 00:36:00,
2013-03-20 19:42:00,45.0,19.6,30.12,ESE,122,0.0,0.0,36,0.00,BKN,BKN,0.00,WeatherDisplay:10.37,2013-03-21 00:42:00,
2013-03-20 19:48:00,44.6,19.3,30.12,ESE,107,0.0,0.0,36,0.00,BKN,BKN,0.00,WeatherDisplay:10.37,2013-03-21 00:48:00,
2013-03-20 19:54:00,44.3,19.0,30.11,ESE,110,0.0,0.0,36,0.00,BKN,BKN,0.00,WeatherDisplay:10.37,2013-03-21 00:54:00,
2013-03-20 20:00:00,44.0,18.8,30.11,ESE,120,0.0,0.0,36,0.00,BKN,BKN,0.00,WeatherDisplay:10.37,2013-03-21 01:00:00,
2013-03-20 20:06:00,43.7,19.1,30.11,ESE,102,0.0,0.0,37,0.00,BKN,BKN,0.00,WeatherDisplay:10.37,2013-03-21 01:06:00,
2013-03-20 20:12:00,43.5,18.9,30.10,East,99,0.0,0.0,37,0.00,BKN,BKN,0.00,WeatherDisplay:10.37,2013-03-21 01:12:00,
2013-03-20 20:18:00,43.3,19.4,30.10,ESE,108,0.0,0.0,38,0.00,BKN,BKN,0.00,WeatherDisplay:10.37,2013-03-21 01:18:00,
2013-03-20 20:24:00,43.3,19.4,30.10,ESE,111,0.0,0.0,38,0.00,BKN,BKN,0.00,WeatherDisplay:10.37,2013-03-21 01:24:00,
2013-03-20 20:30:00,43.0,19.1,30.09,ESE,102,0.0,0.0,38,0.00,BKN,BKN,0.00,WeatherDisplay:10.37,2013-03-21 01:30:00,
2013-03-20 20:36:00,43.0,19.7,30.09,East,100,0.0,0.0,39,0.00,BKN,BKN,0.00,WeatherDisplay:10.37,2013-03-21 01:36:00,
2013-03-20 20:42:00,42.8,19.5,30.09,East,100,0.0,0.0,39,0.00,BKN,BKN,0.00,WeatherDisplay:10.37,2013-03-21 01:42:00,
2013-03-20 20:48:00,42.8,20.1,30.09,East,98,0.0,0.0,40,0.00,BKN,BKN,0.00,WeatherDisplay:10.37,2013-03-21 01:48:00,
2013-03-20 20:54:00,43.0,20.3,30.09,East,95,0.0,0.0,40,0.00,BKN,BKN,0.00,WeatherDisplay:10.37,2013-03-21 01:54:00,
2013-03-20 21:00:00,42.8,20.1,30.09,East,94,0.0,0.0,40,0.00,BKN,BKN,0.00,WeatherDisplay:10.37,2013-03-21 02:00:00,
2013-03-20 21:06:00,43.0,20.3,30.09,ESE,106,3.0,5.0,40,0.00,OVC,OVC,0.00,WeatherDisplay:10.37,2013-03-21 02:06:00,
2013-03-20 21:12:00,43.0,20.3,30.08,ESE,106,0.0,4.0,40,0.00,OVC,OVC,0.00,WeatherDisplay:10.37,2013-03-21 02:12:00,
2013-03-20 21:18:00,42.8,20.1,30.08,East,96,0.0,0.0,40,0.00,OVC,OVC,0.00,WeatherDisplay:10.37,2013-03-21 02:18:00,
2013-03-20 21:24:00,42.8,19.5,30.08,East,85,0.0,0.0,39,0.00,OVC,OVC,0.00,WeatherDisplay:10.37,2013-03-21 02:24:00,
2013-03-20 21:30:00,42.6,19.4,30.08,East,92,0.0,0.0,39,0.00,OVC,OVC,0.00,WeatherDisplay:10.37,2013-03-21 02:30:00,
2013-03-20 21:36:00,42.6,19.3,30.08,East,87,1.0,7.0,39,0.00,OVC,OVC,0.00,WeatherDisplay:10.37,2013-03-21 02:36:00,
2013-03-20 21:42:00,42.6,18.7,30.08,East,100,6.0,7.0,38,0.00,OVC,OVC,0.00,WeatherDisplay:10.37,2013-03-21 02:42:00,
2013-03-20 21:48:00,42.4,18.6,30.08,East,98,5.0,7.0,38,0.00,OVC,OVC,0.00,WeatherDisplay:10.37,2013-03-21 02:48:00,
2013-03-20 21:54:00,42.3,19.1,30.07,ENE,77,5.0,7.0,39,0.00,OVC,OVC,0.00,WeatherDisplay:10.37,2013-03-21 02:54:00,
2013-03-20 22:00:00,42.3,19.1,30.07,East,97,5.0,7.0,39,0.00,OVC,OVC,0.00,WeatherDisplay:10.37,2013-03-21 03:00:00,
2013-03-20 22:06:00,42.1,18.9,30.06,ESE,102,5.0,7.0,39,0.00,OVC,OVC,0.00,WeatherDisplay:10.37,2013-03-21 03:06:00,
2013-03-20 22:12:00,42.1,18.9,30.06,East,101,6.0,8.0,39,0.00,OVC,OVC,0.00,WeatherDisplay:10.37,2013-03-21 03:12:00,
2013-03-20 22:18:00,41.9,18.7,30.06,East,94,6.0,7.0,39,0.00,OVC,OVC,0.00,WeatherDisplay:10.37,2013-03-21 03:18:00,
2013-03-20 22:24:00,41.9,18.7,30.06,East,84,7.0,9.0,39,0.00,OVC,OVC,0.00,WeatherDisplay:10.37,2013-03-21 03:24:00,
2013-03-20 22:30:00,41.9,18.7,30.05,East,99,5.0,9.0,39,0.00,OVC,OVC,0.00,WeatherDisplay:10.37,2013-03-21 03:30:00,
2013-03-20 22:36:00,41.7,18.5,30.05,ESE,106,7.0,12.0,39,0.00,OVC,OVC,0.00,WeatherDisplay:10.37,2013-03-21 03:36:00,
2013-03-20 22:42:00,41.7,18.5,30.05,East,101,7.0,12.0,39,0.00,OVC,OVC,0.00,WeatherDisplay:10.37,2013-03-21 03:42:00,
2013-03-20 22:48:00,41.5,17.7,30.05,ESE,109,6.0,8.0,38,0.00,OVC,OVC,0.00,WeatherDisplay:10.37,2013-03-21 03:48:00,
2013-03-20 22:54:00,41.5,17.7,30.04,ESE,113,6.0,12.0,38,0.00,OVC,OVC,0.00,WeatherDisplay:10.37,2013-03-21 03:54:00,
2013-03-20 23:00:00,41.4,18.3,30.04,ESE,106,7.0,13.0,39,0.00,OVC,OVC,0.00,WeatherDisplay:10.37,2013-03-21 04:00:00,
2013-03-20 23:06:00,41.2,18.1,30.04,East,85,7.0,10.0,39,0.00,BKN,BKN,0.00,WeatherDisplay:10.37,2013-03-21 04:06:00,
2013-03-20 23:09:00,41.2,18.1,30.04,East,88,7.0,10.0,39,0.00,BKN,BKN,0.00,WeatherDisplay:10.37,2013-03-21 04:09:00,
2013-03-20 23:12:00,41.0,17.9,30.04,East,99,7.0,7.0,39,0.00,BKN,BKN,0.00,WeatherDisplay:10.37,2013-03-21 04:12:00,
2013-03-20 23:18:00,41.0,17.9,30.04,ESE,102,8.0,13.0,39,0.00,BKN,BKN,0.00,WeatherDisplay:10.37,2013-03-21 04:18:00,
2013-03-20 23:24:00,40.8,18.3,30.04,East,99,7.0,10.0,40,0.00,BKN,BKN,0.00,WeatherDisplay:10.37,2013-03-21 04:24:00,
2013-03-20 23:30:00,40.6,18.1,30.04,ESE,106,5.0,8.0,40,0.00,BKN,BKN,0.00,WeatherDisplay:10.37,2013-03-21 04:30:00,
2013-03-20 23:36:00,40.6,18.1,30.03,ESE,116,5.0,7.0,40,0.00,BKN,BKN,0.00,WeatherDisplay:10.37,2013-03-21 04:36:00,
2013-03-20 23:42:00,40.6,18.1,30.03,East,98,5.0,7.0,40,0.00,BKN,BKN,0.00,WeatherDisplay:10.37,2013-03-21 04:42:00,
2013-03-20 23:48:00,40.6,18.1,30.03,ESE,105,5.0,5.0,40,0.00,BKN,BKN,0.00,WeatherDisplay:10.37,2013-03-21 04:48:00,
2013-03-20 23:54:00,40.6,18.1,30.02,ESE,112,5.0,5.0,40,0.00,BKN,BKN,0.00,WeatherDisplay:10.37,2013-03-21 04:54:00,